Time;durP1;ratioP1;P1;durP2;ratioP2;P2;SDS_P1;SDS_P2;PMS_P1;PMS_P2;Temp;Humidity;BMP_temperature;BMP_pressure;BME280_temperature;BME280_humidity;BME280_pressure;Samples;Min_cycle;Max_cycle;Signal;HPM_P1;HPM_P2
2021/06/17 10:57:57;;;;;;;3.67;3.37;;;;;;;23.92;68.30;101281.77;1798669;79;26966;-56
2021/06/17 11:00:30;;;;;;;3.87;3.17;;;;;;;23.92;67.98;101289.73;1762503;80;21560;-56
2021/06/17 11:03:07;;;;;;;3.87;3.42;;;;;;;23.95;67.83;101287.31;1752081;80;21004;-56
2021/06/17 11:05:47;;;;;;;3.50;3.15;;;;;;;23.96;67.75;101285.91;1738575;81;21038;-56
2021/06/17 11:08:23;;;;;;;5.78;3.77;;;;;;;23.95;67.77;101281.53;1734168;81;21125;-55
2021/06/17 11:11:04;;;;;;;4.10;3.70;;;;;;;23.95;67.67;101281.53;1743123;80;21081;-56
2021/06/17 11:13:41;;;;;;;4.08;3.12;;;;;;;23.93;67.77;101276.80;1739101;80;21569;-56
2021/06/17 11:16:19;;;;;;;4.42;3.22;;;;;;;23.92;67.80;101273.78;1736191;80;21452;-56
2021/06/17 11:21:30;;;;;;;3.50;3.20;;;;;;;23.92;67.86;101267.14;1747344;81;21035;-57
2021/06/17 11:24:09;;;;;;;4.72;4.08;;;;;;;23.92;67.90;101261.83;1753683;80;21118;-56
2021/06/17 11:26:44;;;;;;;3.65;3.30;;;;;;;23.89;67.98;101266.48;1740262;80;21065;-56
2021/06/17 11:29:22;;;;;;;3.62;3.35;;;;;;;23.86;67.97;101263.58;1744295;80;21050;-56
2021/06/17 11:31:53;;;;;;;3.83;3.52;;;;;;;23.86;68.15;101260.92;1738737;81;21062;-57
2021/06/17 11:34:37;;;;;;;3.83;3.20;;;;;;;23.85;68.33;101257.88;1742582;81;21062;-56
2021/06/17 11:37:14;;;;;;;4.10;3.77;;;;;;;23.87;68.47;101271.91;1737729;80;21049;-56
2021/06/17 11:39:41;;;;;;;4.55;3.45;;;;;;;23.88;68.48;101270.97;1643496;85;21087;-57
2021/06/17 11:42:19;;;;;;;4.55;3.40;;;;;;;23.88;68.38;101268.31;1638421;85;21049;-58
2021/06/17 11:44:43;;;;;;;6.90;3.30;;;;;;;23.89;68.48;101268.66;1558470;90;21085;-57
2021/06/17 11:47:14;;;;;;;11.12;5.00;;;;;;;23.87;68.15;101271.91;1585572;90;21558;-58
2021/06/17 11:49:44;;;;;;;3.67;3.37;;;;;;;23.85;67.99;101272.96;1588084;89;21107;-58
2021/06/17 11:52:20;;;;;;;3.12;2.92;;;;;;;23.79;68.00;101271.59;1614037;89;21149;-57
2021/06/17 11:54:49;;;;;;;3.50;3.20;;;;;;;23.78;67.92;101275.18;1590416;88;21604;-57
2021/06/17 11:57:19;;;;;;;5.37;3.33;;;;;;;23.76;67.84;101286.39;1592393;90;21585;-56
2021/06/17 11:59:49;;;;;;;3.42;3.12;;;;;;;23.74;67.99;101292.29;1590633;89;21083;-57
2021/06/17 12:02:27;;;;;;;3.80;3.00;;;;;;;23.72;68.08;101284.91;1582459;89;21156;-56
2021/06/17 12:04:59;;;;;;;3.27;3.00;;;;;;;23.72;68.07;101298.19;1574928;89;21062;-56
2021/06/17 12:07:33;;;;;;;3.80;3.22;;;;;;;23.73;67.96;101295.92;1586052;90;21048;-56
2021/06/17 12:10:19;;;;;;;2.67;2.47;;;;;;;23.71;67.93;101293.84;1585280;90;21110;-56
2021/06/17 12:12:54;;;;;;;5.95;3.27;;;;;;;23.69;67.90;101298.41;1581670;90;21147;-57
2021/06/17 12:15:25;;;;;;;3.35;3.10;;;;;;;23.69;68.13;101294.42;1581958;88;21151;-57
2021/06/17 12:17:58;;;;;;;5.03;3.50;;;;;;;23.66;68.34;101292.47;1587618;90;21135;-55
2021/06/17 12:20:35;;;;;;;3.58;3.27;;;;;;;23.68;68.44;101291.88;1587421;89;21107;-58
2021/06/17 12:23:08;;;;;;;3.98;3.20;;;;;;;23.68;68.37;101286.06;1583969;89;21048;-56
2021/06/17 12:25:43;;;;;;;5.42;3.60;;;;;;;23.69;68.25;101295.75;1586794;90;21565;-55
2021/06/17 12:28:12;;;;;;;3.62;3.27;;;;;;;23.68;68.34;101290.05;1595358;89;21116;-55
2021/06/17 12:30:44;;;;;;;3.27;2.98;;;;;;;23.67;68.26;101284.37;1585057;89;21027;-57
2021/06/17 12:33:26;;;;;;;4.90;3.37;;;;;;;23.65;68.32;101291.61;1578052;89;21110;-57
2021/06/17 12:36:03;;;;;;;3.45;3.20;;;;;;;23.65;68.58;101286.29;1598821;87;21094;-58
2021/06/17 12:38:36;;;;;;;4.95;3.80;;;;;;;23.64;68.89;101293.05;1628681;86;21067;-57
2021/06/17 12:41:16;;;;;;;4.35;3.65;;;;;;;23.64;69.08;101305.83;1669103;82;20987;-57
2021/06/17 12:43:51;;;;;;;3.40;3.08;;;;;;;23.66;69.15;101291.13;1690359;83;21433;-57
2021/06/17 12:46:27;;;;;;;4.12;3.72;;;;;;;23.64;69.31;101280.59;1692274;83;21065;-57
2021/06/17 12:54:33;;;;;;;4.92;4.25;;;;;;;23.65;69.34;101286.29;1730622;80;21092;-57
2021/06/17 12:57:17;;;;;;;3.45;3.15;;;;;;;23.64;69.30;101287.23;1699167;83;21041;-56
2021/06/17 13:00:15;;;;;;;4.00;3.50;;;;;;;23.64;69.34;101288.56;1698709;83;21028;-54
2021/06/17 13:02:46;;;;;;;3.70;3.40;;;;;;;23.62;69.27;101284.33;1686168;83;21602;-56
2021/06/17 13:05:18;;;;;;;3.87;3.58;;;;;;;23.59;69.21;101281.86;1702424;83;21163;-58
2021/06/17 13:08:05;;;;;;;3.65;3.17;;;;;;;23.60;69.13;101284.87;1699539;83;20994;-58
2021/06/17 13:10:45;;;;;;;3.35;3.10;;;;;;;23.58;69.17;101277.02;1690967;83;21065;-56
2021/06/17 13:13:21;;;;;;;3.70;3.40;;;;;;;23.59;69.07;101284.52;1619182;86;21075;-56
2021/06/17 13:15:50;;;;;;;4.65;3.05;;;;;;;23.59;69.02;101280.53;1633385;86;21148;-57
2021/06/17 13:18:17;;;;;;;3.80;3.50;;;;;;;23.60;69.00;101272.45;1632483;86;21578;-56
2021/06/17 13:20:51;;;;;;;3.87;3.58;;;;;;;23.62;68.98;101281.17;1631402;86;21102;-55
2021/06/17 13:23:21;;;;;;;3.62;3.33;;;;;;;23.63;68.91;101281.56;1593575;88;21101;-54
2021/06/17 13:26:09;;;;;;;3.80;3.17;;;;;;;23.67;69.01;101279.06;1607421;89;21069;-56
2021/06/17 13:28:49;;;;;;;3.85;3.55;;;;;;;23.68;69.12;101279.42;1549501;91;21883;-54
2021/06/17 13:31:29;;;;;;;3.47;3.10;;;;;;;23.72;69.08;101271.61;1515208;92;21086;-54
2021/06/17 13:33:58;;;;;;;3.40;3.10;;;;;;;23.76;69.03;101266.47;1521056;93;21115;-56
2021/06/17 13:36:24;;;;;;;3.75;3.45;;;;;;;23.78;68.92;101265.05;1500579;93;21619;-52
2021/06/17 13:38:52;;;;;;;3.47;3.17;;;;;;;23.82;69.00;101264.71;1521099;92;21161;-55
2021/06/17 13:41:19;;;;;;;3.55;3.25;;;;;;;23.83;68.93;101256.27;1552430;90;21134;-57
2021/06/17 13:43:47;;;;;;;3.20;3.00;;;;;;;23.85;68.83;101254.36;1550114;91;21076;-54
2021/06/17 13:46:14;;;;;;;3.40;3.20;;;;;;;23.87;68.85;101249.31;1563935;91;21132;-57
2021/06/17 13:48:42;;;;;;;3.47;3.17;;;;;;;23.89;68.74;101247.40;1551446;90;21610;-57
2021/06/17 13:51:09;;;;;;;3.87;3.58;;;;;;;23.91;68.72;101244.16;1557432;91;21571;-57
2021/06/17 13:53:37;;;;;;;2.98;2.77;;;;;;;23.93;68.59;101234.27;1567311;90;21159;-57
2021/06/17 13:56:05;;;;;;;3.70;3.40;;;;;;;23.95;68.56;101225.71;1566526;89;21122;-55
2021/06/17 13:58:33;;;;;;;3.60;3.33;;;;;;;23.99;68.46;101229.85;1581807;89;21068;-53
2021/06/17 14:01:02;;;;;;;3.75;3.42;;;;;;;24.02;68.32;101227.00;1582585;89;21056;-54
2021/06/17 14:03:30;;;;;;;3.52;3.30;;;;;;;24.02;68.23;101225.66;1562252;89;21078;-54
2021/06/17 14:05:58;;;;;;;3.20;3.00;;;;;;;24.05;68.20;101217.48;1553313;90;21580;-60
2021/06/17 14:08:24;;;;;;;3.10;2.85;;;;;;;24.07;68.08;101218.73;1565096;91;21067;-56
2021/06/17 14:10:53;;;;;;;3.12;2.92;;;;;;;24.07;68.10;101219.56;1560375;90;21104;-56
2021/06/17 14:13:23;;;;;;;3.25;2.77;;;;;;;24.07;68.09;101214.75;1562751;91;21547;-62
2021/06/17 14:15:50;;;;;;;4.92;3.72;;;;;;;24.05;68.20;101213.50;1582529;89;21147;-57
2021/06/17 14:18:19;;;;;;;3.45;3.15;;;;;;;24.06;68.16;101207.72;1596164;89;21087;-58
2021/06/17 14:20:46;;;;;;;3.27;2.98;;;;;;;24.04;68.33;101206.50;1635651;84;21049;-58
2021/06/17 14:23:12;;;;;;;3.65;3.25;;;;;;;24.01;68.47;101209.33;1676394;85;21013;-58
2021/06/17 14:25:41;;;;;;;3.35;3.15;;;;;;;24.00;68.51;101210.30;1712421;80;21027;-57
2021/06/17 14:28:09;;;;;;;3.40;3.10;;;;;;;23.99;68.60;101227.20;1751617;80;21112;-58
2021/06/17 14:30:36;;;;;;;4.25;3.83;;;;;;;23.97;68.74;101218.48;1740164;81;21525;-58
2021/06/17 14:33:04;;;;;;;3.37;3.17;;;;;;;23.99;68.81;101213.05;1738613;81;21051;-58
2021/06/17 14:35:31;;;;;;;3.20;3.00;;;;;;;23.99;68.96;101215.23;1745595;81;21507;-58
2021/06/17 14:37:59;;;;;;;4.33;3.85;;;;;;;24.00;68.96;101212.96;1742036;81;21473;-55
2021/06/17 14:40:26;;;;;;;4.30;3.90;;;;;;;24.01;68.99;101218.63;1751659;80;21006;-57
2021/06/17 14:42:52;;;;;;;10.95;3.62;;;;;;;24.01;68.99;101214.64;1748425;80;20992;-54
2021/06/17 14:45:19;;;;;;;7.50;4.70;;;;;;;23.99;69.08;101208.59;1745765;81;21067;-56
2021/06/17 14:47:46;;;;;;;5.60;4.08;;;;;;;24.00;69.13;101218.75;1748872;81;21019;-54
2021/06/17 14:50:14;;;;;;;7.37;4.10;;;;;;;23.96;69.32;101214.14;1732929;81;21082;-53
2021/06/17 14:52:41;;;;;;;6.70;4.35;;;;;;;23.95;69.57;101206.24;1742408;81;21038;-55
2021/06/17 14:55:11;;;;;;;6.58;4.50;;;;;;;23.94;69.73;101207.22;1737123;81;21023;-54
2021/06/17 14:57:37;;;;;;;9.58;5.05;;;;;;;23.91;69.79;101206.95;1747592;81;21045;-54
2021/06/17 15:00:07;;;;;;;7.08;4.60;;;;;;;23.91;69.90;101219.38;1748881;81;21486;-54
2021/06/17 15:02:34;;;;;;;7.08;4.28;;;;;;;23.88;70.02;101195.22;1748274;81;21541;-54
2021/06/17 15:05:01;;;;;;;5.97;4.25;;;;;;;23.89;70.10;101197.38;1753155;81;21027;-55
2021/06/17 15:07:27;;;;;;;4.22;3.83;;;;;;;23.87;70.17;101190.84;1750135;81;21024;-59
2021/06/17 15:09:54;;;;;;;3.92;3.58;;;;;;;23.86;70.28;101196.27;1752887;81;21443;-55
2021/06/17 15:12:22;;;;;;;4.97;3.70;;;;;;;23.85;70.37;101186.59;1752610;81;21023;-55
2021/06/17 15:14:49;;;;;;;5.37;3.83;;;;;;;23.86;70.41;101181.19;1755713;81;21062;-54
2021/06/17 15:17:16;;;;;;;7.10;4.17;;;;;;;23.86;70.55;101174.55;1747384;81;21506;-55
2021/06/17 15:19:43;;;;;;;4.45;4.05;;;;;;;23.86;70.62;101175.02;1748450;81;21110;-54
2021/06/17 15:22:10;;;;;;;4.65;3.80;;;;;;;23.87;70.68;101172.23;1751291;81;20991;-53
2021/06/17 15:24:38;;;;;;;4.25;3.85;;;;;;;23.89;70.64;101167.66;1746472;81;21059;-54
2021/06/17 15:27:07;;;;;;;5.85;4.65;;;;;;;23.89;70.65;101164.15;1746723;81;21054;-56
2021/06/17 15:29:35;;;;;;;4.37;4.08;;;;;;;23.90;70.68;101176.03;1747807;81;21069;-57
2021/06/17 15:32:04;;;;;;;4.15;3.75;;;;;;;23.92;70.71;101174.11;1749547;81;21070;-55
2021/06/17 15:34:31;;;;;;;6.10;4.10;;;;;;;23.94;70.72;101174.84;1753842;81;21513;-54
2021/06/17 15:36:57;;;;;;;6.22;4.15;;;;;;;23.95;70.73;101175.20;1750308;80;21063;-55
2021/06/17 15:39:27;;;;;;;4.30;3.90;;;;;;;24.00;70.75;101173.56;1751823;81;21498;-55
2021/06/17 15:41:54;;;;;;;5.30;4.10;;;;;;;24.02;70.72;101159.20;1748981;81;21070;-55
2021/06/17 15:44:22;;;;;;;4.25;3.80;;;;;;;24.03;70.73;101166.23;1750108;81;20998;-54
2021/06/17 15:46:49;;;;;;;4.40;3.77;;;;;;;24.06;70.72;101162.05;1747445;81;21022;-54
2021/06/17 15:49:16;;;;;;;5.72;4.53;;;;;;;24.08;70.79;101165.45;1752655;81;21058;-56
2021/06/17 15:51:45;;;;;;;4.95;4.45;;;;;;;24.10;70.76;101152.03;1751529;81;21043;-53
2021/06/17 15:54:12;;;;;;;5.85;4.12;;;;;;;24.11;70.66;101158.56;1750374;81;21077;-57
2021/06/17 15:56:39;;;;;;;4.37;3.90;;;;;;;24.13;70.67;101148.67;1751025;81;21038;-54
2021/06/17 15:59:05;;;;;;;4.67;4.08;;;;;;;24.15;70.70;101155.23;1754131;81;21053;-53
2021/06/17 16:01:32;;;;;;;4.35;4.03;;;;;;;24.16;70.60;101153.78;1753337;81;21011;-54
2021/06/17 16:04:00;;;;;;;6.22;4.10;;;;;;;24.19;70.49;101152.21;1749462;81;21000;-53
2021/06/17 16:06:27;;;;;;;4.37;3.98;;;;;;;24.20;70.41;101153.93;1752410;81;21052;-55
2021/06/17 16:08:54;;;;;;;4.22;3.92;;;;;;;24.23;70.37;101157.68;1753467;82;21038;-54
2021/06/17 16:11:21;;;;;;;5.87;4.17;;;;;;;24.27;70.34;101145.51;1749450;81;21540;-54
2021/06/17 16:13:47;;;;;;;4.42;4.03;;;;;;;24.32;70.32;101143.38;1747592;81;21027;-54
2021/06/17 16:16:14;;;;;;;4.30;4.00;;;;;;;24.34;70.28;101148.93;1754045;81;21027;-54
2021/06/17 16:18:41;;;;;;;4.37;3.98;;;;;;;24.38;70.20;101149.58;1753763;81;21030;-52
2021/06/17 16:21:08;;;;;;;5.40;4.35;;;;;;;24.41;70.18;101142.69;1749482;81;21031;-61
2021/06/17 16:23:38;;;;;;;3.90;3.60;;;;;;;24.44;70.14;101147.80;1750193;81;21395;-55
2021/06/17 16:26:05;;;;;;;5.45;4.05;;;;;;;24.47;70.09;101136.92;1750073;81;21084;-55
2021/06/17 16:28:33;;;;;;;6.03;4.45;;;;;;;24.50;70.06;101139.37;1752216;81;21483;-54
2021/06/17 16:30:59;;;;;;;6.00;4.08;;;;;;;24.53;70.07;101132.47;1751266;81;21062;-55
2021/06/17 16:33:26;;;;;;;4.42;3.95;;;;;;;24.56;70.02;101122.95;1748409;81;21482;-53
2021/06/17 16:35:53;;;;;;;4.25;3.95;;;;;;;24.59;69.97;101122.71;1751242;81;21023;-54
2021/06/17 16:38:20;;;;;;;4.10;3.80;;;;;;;24.62;69.86;101125.16;1752220;81;21022;-53
2021/06/17 16:40:47;;;;;;;4.22;3.92;;;;;;;24.64;69.82;101131.22;1748518;81;21031;-55
2021/06/17 16:43:15;;;;;;;4.08;3.77;;;;;;;24.67;69.79;101133.16;1750547;81;21062;-61
2021/06/17 16:45:41;;;;;;;8.03;4.40;;;;;;;24.69;69.68;101127.75;1753614;81;21058;-53
2021/06/17 16:48:08;;;;;;;6.55;3.83;;;;;;;24.73;69.68;101127.88;1749481;81;21023;-54
2021/06/17 16:50:35;;;;;;;4.58;4.15;;;;;;;24.77;69.58;101129.38;1749719;81;21421;-52
2021/06/17 16:53:02;;;;;;;4.62;4.33;;;;;;;24.80;69.43;101123.81;1751510;81;21019;-53
2021/06/17 16:55:29;;;;;;;4.30;4.00;;;;;;;24.83;69.29;101131.58;1752513;81;21491;-54
2021/06/17 16:57:55;;;;;;;5.95;3.95;;;;;;;24.85;69.24;101132.31;1751075;81;21030;-56
2021/06/17 17:00:23;;;;;;;4.28;3.95;;;;;;;24.86;69.19;101134.00;1749706;81;21011;-54
2021/06/17 17:02:50;;;;;;;4.50;4.10;;;;;;;24.86;69.17;101130.01;1750152;81;21510;-55
2021/06/17 17:05:17;;;;;;;5.28;4.40;;;;;;;24.86;69.15;101128.67;1734105;82;20971;-55
2021/06/17 17:07:44;;;;;;;4.45;4.05;;;;;;;24.84;69.22;101139.45;1754761;81;21078;-54
2021/06/17 17:10:13;;;;;;;4.22;3.67;;;;;;;24.85;69.26;101140.30;1755519;81;21054;-53
2021/06/17 17:12:40;;;;;;;4.53;4.10;;;;;;;24.83;69.45;101144.89;1750872;81;21026;-54
2021/06/17 17:15:09;;;;;;;4.20;3.83;;;;;;;24.82;69.59;101129.87;1752939;81;21556;-54
2021/06/17 17:17:35;;;;;;;3.85;3.55;;;;;;;24.81;69.58;101134.84;1750386;81;21549;-53
2021/06/17 17:20:05;;;;;;;3.92;3.33;;;;;;;24.80;69.42;101141.11;1750108;81;21033;-57
2021/06/17 17:22:32;;;;;;;4.05;2.98;;;;;;;24.81;69.36;101137.50;1748165;81;21011;-54
2021/06/17 17:24:59;;;;;;;5.00;3.52;;;;;;;24.83;69.19;101139.57;1751689;81;21023;-55
2021/06/17 17:27:25;;;;;;;4.92;3.95;;;;;;;24.82;69.22;101137.86;1754444;81;21026;-60
2021/06/17 17:29:52;;;;;;;5.62;3.80;;;;;;;24.81;69.41;101138.84;1751306;81;21546;-53
2021/06/17 17:32:19;;;;;;;4.42;4.00;;;;;;;24.79;69.60;101122.95;1751924;81;21022;-54
2021/06/17 17:34:46;;;;;;;5.08;4.40;;;;;;;24.82;69.61;101125.88;1755968;80;21030;-53
2021/06/17 17:37:12;;;;;;;4.00;3.60;;;;;;;24.83;69.54;101132.91;1753169;81;20999;-54
2021/06/17 17:39:39;;;;;;;5.70;4.40;;;;;;;24.86;69.46;101134.86;1747561;81;21038;-53
2021/06/17 17:42:07;;;;;;;3.77;3.47;;;;;;;24.87;69.50;101138.37;1749114;81;21074;-53
2021/06/17 17:44:35;;;;;;;7.78;4.87;;;;;;;24.87;69.50;101143.70;1747361;81;21676;-56
2021/06/17 17:47:02;;;;;;;6.45;4.45;;;;;;;24.87;69.54;101146.36;1757479;81;21057;-54
2021/06/17 17:49:29;;;;;;;8.93;7.97;;;;;;;24.88;69.63;101143.58;1752738;81;21046;-55
2021/06/17 17:51:56;;;;;;;9.45;8.55;;;;;;;24.89;69.56;101139.94;1753698;81;21003;-53
2021/06/17 17:54:23;;;;;;;9.30;8.40;;;;;;;24.92;69.56;101141.52;1754743;81;21069;-53
2021/06/17 17:56:50;;;;;;;19.27;12.98;;;;;;;24.95;69.58;101139.50;1752739;81;21041;-53
2021/06/17 17:59:17;;;;;;;14.90;13.05;;;;;;;24.97;69.57;101140.71;1747254;81;21790;-52
2021/06/17 18:01:44;;;;;;;17.32;14.00;;;;;;;25.00;69.44;101137.80;1753244;81;21026;-53
2021/06/17 18:04:11;;;;;;;17.75;14.95;;;;;;;25.00;69.26;101136.47;1750211;81;21545;-53
2021/06/17 18:06:37;;;;;;;11.85;10.75;;;;;;;25.02;69.21;101137.20;1752841;81;21042;-55
2021/06/17 18:09:05;;;;;;;12.35;11.15;;;;;;;25.04;69.13;101139.27;1754253;81;21043;-54
2021/06/17 18:11:33;;;;;;;15.55;14.00;;;;;;;25.06;69.05;101145.31;1749642;81;21542;-54
2021/06/17 18:13:59;;;;;;;10.72;9.53;;;;;;;25.08;69.02;101143.39;1751611;81;21097;-54
2021/06/17 18:16:50;;;;;;;9.85;8.73;;;;;;;25.11;69.02;101148.50;1740107;81;21066;-55
2021/06/17 18:19:17;;;;;;;10.75;9.65;;;;;;;25.14;68.92;101157.60;1747733;81;21077;-60
2021/06/17 18:21:44;;;;;;;9.53;8.45;;;;;;;25.14;68.85;101165.59;1753400;81;21038;-55
2021/06/17 18:24:10;;;;;;;7.83;7.08;;;;;;;25.15;68.64;101164.61;1746740;80;21014;-54
2021/06/17 18:26:38;;;;;;;5.92;5.40;;;;;;;25.16;68.60;101165.47;1751304;81;21050;-54
2021/06/17 18:29:05;;;;;;;9.03;5.67;;;;;;;25.16;68.48;101168.98;1751616;81;21070;-53
2021/06/17 18:31:33;;;;;;;6.15;5.35;;;;;;;25.19;68.36;101175.87;1751790;81;21121;-55
2021/06/17 18:34:00;;;;;;;5.00;4.65;;;;;;;25.17;68.34;101160.02;1748736;81;21164;-56
2021/06/17 18:36:27;;;;;;;4.78;4.37;;;;;;;25.19;68.23;101158.08;1749265;81;21019;-54
2021/06/17 18:38:53;;;;;;;5.12;4.70;;;;;;;25.18;68.09;101155.07;1749260;81;21497;-53
2021/06/17 18:41:21;;;;;;;4.67;4.30;;;;;;;25.17;68.03;101157.35;1750788;81;20994;-54
2021/06/17 18:43:47;;;;;;;4.60;4.20;;;;;;;25.16;67.95;101160.14;1748385;81;21044;-55
2021/06/17 18:46:14;;;;;;;4.90;4.47;;;;;;;25.15;68.02;101153.09;1748344;81;21085;-52
2021/06/17 18:48:41;;;;;;;4.72;4.33;;;;;;;25.15;68.08;101163.28;1748692;81;21034;-53
2021/06/17 18:51:08;;;;;;;5.15;4.60;;;;;;;25.14;68.14;101158.94;1751185;81;21062;-57
2021/06/17 18:53:35;;;;;;;4.97;4.15;;;;;;;25.14;68.13;101162.92;1753521;81;20999;-55
2021/06/17 18:56:09;;;;;;;4.70;4.30;;;;;;;25.11;68.17;101160.48;1749989;81;20990;-54
2021/06/17 18:58:30;;;;;;;6.70;5.00;;;;;;;25.10;68.04;101164.09;1753691;81;21047;-55
2021/06/17 19:00:57;;;;;;;6.17;4.67;;;;;;;25.09;67.68;101162.41;1752830;80;21006;-54
2021/06/17 19:03:23;;;;;;;5.78;5.20;;;;;;;25.08;67.37;101171.34;1752742;81;21069;-54
2021/06/17 19:05:50;;;;;;;6.00;5.40;;;;;;;25.05;67.01;101163.61;1747903;81;21042;-54
2021/06/17 19:08:17;;;;;;;8.73;5.45;;;;;;;25.04;66.71;101161.89;1750856;81;21015;-54
2021/06/17 19:10:44;;;;;;;6.80;5.40;;;;;;;25.03;66.54;101162.87;1747798;81;21600;-53
2021/06/17 19:13:11;;;;;;;5.78;5.25;;;;;;;25.02;66.40;101155.84;1754885;81;20979;-54
2021/06/17 19:15:39;;;;;;;5.60;5.10;;;;;;;25.01;66.33;101159.48;1766719;81;21522;-57
2021/06/17 19:18:07;;;;;;;5.37;4.87;;;;;;;24.99;66.21;101152.09;1759717;81;21018;-52
2021/06/17 19:20:35;;;;;;;5.25;4.75;;;;;;;24.98;66.03;101150.38;1747100;81;20999;-56
2021/06/17 19:23:02;;;;;;;5.53;5.03;;;;;;;24.96;65.77;101144.31;1753436;81;21034;-55
2021/06/17 19:25:29;;;;;;;5.53;5.05;;;;;;;24.93;65.76;101135.25;1766269;81;21023;-52
2021/06/17 19:27:56;;;;;;;5.80;4.95;;;;;;;24.91;65.80;101133.19;1766797;81;21019;-55
2021/06/17 19:30:25;;;;;;;5.60;5.10;;;;;;;24.91;65.66;101131.85;1756286;81;21126;-53
2021/06/17 19:32:53;;;;;;;6.00;5.25;;;;;;;24.88;65.60;101129.41;1760285;81;21501;-54
2021/06/17 19:35:20;;;;;;;6.30;5.70;;;;;;;24.87;65.49;101134.38;1754991;81;21514;-55
2021/06/17 19:37:47;;;;;;;5.60;5.20;;;;;;;24.85;65.42;101135.80;1763936;81;21439;-53
2021/06/17 19:40:15;;;;;;;5.78;4.70;;;;;;;24.84;65.15;101142.58;1754155;81;21010;-55
2021/06/17 19:42:42;;;;;;;6.17;4.90;;;;;;;24.83;65.10;101136.91;1750639;81;21550;-54
2021/06/17 19:45:10;;;;;;;7.67;4.67;;;;;;;24.82;64.98;101137.86;1762317;81;21054;-54
2021/06/17 19:47:37;;;;;;;11.08;5.40;;;;;;;24.81;64.86;101142.83;1756356;81;20995;-54
2021/06/17 19:50:06;;;;;;;5.30;4.90;;;;;;;24.81;64.84;101141.50;1764941;81;21039;-56
2021/06/17 19:52:35;;;;;;;5.60;4.87;;;;;;;24.81;64.88;101142.83;1754244;81;21517;-55
2021/06/17 19:55:05;;;;;;;5.75;5.25;;;;;;;24.81;64.87;101154.80;1764339;81;20992;-55
2021/06/17 19:57:30;;;;;;;5.67;5.03;;;;;;;24.80;64.95;101147.77;1767112;81;21011;-55
2021/06/17 19:59:57;;;;;;;6.80;5.55;;;;;;;24.78;65.14;101150.55;1762778;81;21101;-53
2021/06/17 20:02:25;;;;;;;6.12;5.50;;;;;;;24.77;65.26;101148.02;1754688;80;21034;-61
2021/06/17 20:04:52;;;;;;;5.87;5.08;;;;;;;24.77;65.36;101145.35;1755040;81;21025;-55
2021/06/17 20:07:19;;;;;;;5.90;5.40;;;;;;;24.77;65.32;101150.67;1761678;80;21051;-54
2021/06/17 20:09:46;;;;;;;6.83;5.20;;;;;;;24.75;65.40;101149.94;1767090;81;20995;-56
2021/06/17 20:12:14;;;;;;;5.85;5.22;;;;;;;24.73;65.51;101149.17;1766062;81;21494;-53
2021/06/17 20:14:42;;;;;;;5.72;5.12;;;;;;;24.71;65.62;101147.11;1757728;81;21568;-62
2021/06/17 20:17:09;;;;;;;5.58;5.03;;;;;;;24.70;65.55;101150.72;1754000;81;21121;-55
2021/06/17 20:19:37;;;;;;;6.95;5.50;;;;;;;24.68;65.53;101151.31;1765276;81;21026;-55
2021/06/17 20:22:08;;;;;;;6.25;5.75;;;;;;;24.67;65.61;101157.58;1765410;81;21023;-55
2021/06/17 20:24:36;;;;;;;6.72;5.50;;;;;;;24.66;65.62;101158.56;1761346;81;21042;-54
2021/06/17 20:27:04;;;;;;;5.70;5.20;;;;;;;24.64;65.62;101158.69;1765313;81;21014;-55
2021/06/17 20:29:31;;;;;;;5.80;5.35;;;;;;;24.62;65.68;101157.09;1759359;81;21006;-55
2021/06/17 20:31:58;;;;;;;7.37;5.35;;;;;;;24.61;65.75;101162.02;1764081;81;20978;-55
2021/06/17 20:34:25;;;;;;;5.70;5.17;;;;;;;24.59;65.90;101170.60;1760769;80;20995;-55
2021/06/17 20:36:53;;;;;;;6.25;5.15;;;;;;;24.58;66.01;101158.27;1761673;81;21030;-55
2021/06/17 20:39:20;;;;;;;7.15;5.50;;;;;;;24.56;65.94;101162.86;1758580;81;21058;-54
2021/06/17 20:41:48;;;;;;;8.73;5.60;;;;;;;24.56;65.81;101166.86;1750966;81;21011;-54
2021/06/17 20:44:16;;;;;;;10.23;6.20;;;;;;;24.53;65.78;101165.73;1764475;81;21561;-55
2021/06/17 20:46:43;;;;;;;6.17;4.60;;;;;;;24.51;65.61;101166.33;1766411;81;21547;-54
2021/06/17 20:49:10;;;;;;;5.50;4.33;;;;;;;24.51;65.37;101161.00;1755736;81;21076;-55
2021/06/17 20:51:37;;;;;;;4.90;4.45;;;;;;;24.50;64.84;101159.33;1761418;81;21037;-55
2021/06/17 20:54:04;;;;;;;4.80;4.40;;;;;;;24.49;64.61;101161.59;1755491;81;21080;-55
2021/06/17 20:56:32;;;;;;;5.42;4.92;;;;;;;24.47;64.34;101157.73;1768105;81;21015;-55
2021/06/17 20:58:58;;;;;;;5.08;3.95;;;;;;;24.47;64.26;101158.20;1757582;80;21042;-60
2021/06/17 21:01:26;;;;;;;5.33;4.10;;;;;;;24.47;64.13;101160.86;1759947;81;21027;-54
2021/06/17 21:03:52;;;;;;;5.50;4.15;;;;;;;24.45;64.10;101160.13;1755025;80;21022;-58
2021/06/17 21:06:19;;;;;;;4.83;4.33;;;;;;;24.46;64.00;101157.84;1758939;80;21117;-62
2021/06/17 21:08:45;;;;;;;5.10;4.17;;;;;;;24.46;63.81;101159.18;1747380;81;21557;-55
2021/06/17 21:11:12;;;;;;;4.50;4.00;;;;;;;24.46;63.85;101159.18;1762733;81;20978;-55
2021/06/17 21:13:39;;;;;;;4.60;4.20;;;;;;;24.48;63.70;101159.91;1759225;80;21536;-55
2021/06/17 21:16:06;;;;;;;5.97;4.30;;;;;;;24.47;63.69;101157.73;1767104;81;21007;-55
2021/06/17 21:18:33;;;;;;;5.75;5.17;;;;;;;24.44;63.76;101166.42;1756790;81;21019;-53
2021/06/17 21:21:00;;;;;;;4.42;4.03;;;;;;;24.43;63.85;101167.37;1753711;81;21014;-53
2021/06/17 21:23:27;;;;;;;4.60;4.20;;;;;;;24.42;63.87;101171.00;1759923;81;21016;-55
2021/06/17 21:25:53;;;;;;;7.03;4.60;;;;;;;24.39;64.00;101176.06;1762502;81;21039;-55
2021/06/17 21:28:20;;;;;;;5.45;4.10;;;;;;;24.38;64.09;101185.48;1755538;81;21085;-55
2021/06/17 21:30:47;;;;;;;7.92;3.92;;;;;;;24.37;64.11;101194.41;1766975;81;20996;-53
2021/06/17 21:33:13;;;;;;;3.83;3.52;;;;;;;24.37;64.18;101195.74;1760086;81;21033;-54
2021/06/17 21:35:40;;;;;;;6.00;2.95;;;;;;;24.37;64.13;101191.75;1760968;81;21030;-56
2021/06/17 21:38:07;;;;;;;4.67;2.75;;;;;;;24.38;63.75;101186.81;1759925;81;21664;-54
2021/06/17 21:40:36;;;;;;;4.37;2.55;;;;;;;24.37;63.37;101185.10;1766696;81;21456;-54
2021/06/17 21:43:03;;;;;;;4.37;2.52;;;;;;;24.37;63.30;101191.75;1759564;81;21030;-54
2021/06/17 21:45:30;;;;;;;6.97;2.55;;;;;;;24.35;63.12;101196.33;1760196;81;21059;-54
2021/06/17 21:47:58;;;;;;;3.22;2.00;;;;;;;24.33;62.79;101199.58;1757405;81;21546;-53
2021/06/17 21:50:24;;;;;;;3.58;2.30;;;;;;;24.28;62.51;101203.89;1752738;81;21051;-54
2021/06/17 21:52:51;;;;;;;5.75;2.50;;;;;;;24.27;62.61;101214.66;1759043;81;21466;-55
2021/06/17 21:55:19;;;;;;;4.72;2.12;;;;;;;24.25;62.59;101215.59;1761860;80;21082;-57
2021/06/17 21:57:47;;;;;;;4.62;1.80;;;;;;;24.23;62.54;101217.52;1759063;81;20999;-54
2021/06/17 22:00:20;;;;;;;5.12;2.17;;;;;;;24.20;62.58;101220.41;1766038;81;21577;-56
2021/06/17 22:02:47;;;;;;;3.12;1.80;;;;;;;24.19;62.43;101224.01;1767548;81;21011;-55
2021/06/17 22:05:14;;;;;;;7.25;1.90;;;;;;;24.17;62.13;101223.27;1753096;81;21011;-55
2021/06/17 22:07:41;;;;;;;5.08;2.02;;;;;;;24.15;62.10;101230.50;1762462;81;21499;-60
2021/06/17 22:10:11;;;;;;;3.50;1.65;;;;;;;24.12;62.08;101236.05;1753770;81;21073;-55
2021/06/17 22:12:39;;;;;;;5.37;1.77;;;;;;;24.10;62.10;101231.80;1749993;81;21470;-54
2021/06/17 22:15:10;;;;;;;3.47;1.90;;;;;;;24.07;62.21;101228.87;1763000;81;21019;-54
2021/06/17 22:17:37;;;;;;;3.95;1.95;;;;;;;24.04;62.18;101219.80;1758852;81;21450;-54
2021/06/17 22:20:06;;;;;;;5.12;2.27;;;;;;;24.01;62.21;101221.30;1763329;81;20994;-62
2021/06/17 22:22:33;;;;;;;5.58;1.92;;;;;;;23.97;62.23;101229.11;1759783;81;21004;-54
2021/06/17 22:25:02;;;;;;;2.95;2.08;;;;;;;23.92;62.11;101223.28;1755305;81;21014;-54
2021/06/17 22:27:29;;;;;;;4.87;2.33;;;;;;;23.85;62.08;101224.65;1758447;81;21017;-54
2021/06/17 22:29:57;;;;;;;5.12;2.25;;;;;;;23.81;62.11;101232.47;1753841;81;21603;-54
2021/06/17 22:32:25;;;;;;;4.25;2.08;;;;;;;23.79;62.26;101233.05;1759228;81;21021;-54
2021/06/17 22:34:52;;;;;;;2.70;1.82;;;;;;;23.78;62.25;101240.64;1755740;80;21140;-53
2021/06/17 22:37:22;;;;;;;5.62;2.30;;;;;;;23.77;62.39;101249.58;1761710;81;21065;-54